LTBL/IGI METAR and TAF weather

Enter ICAO airport designator
Station Type Date Time Source
LTBL METAR 2020/01/27 11:50 UTC NOAA

LTBL 271150Z 14012KT 9999 SCT035 BKN100 17/09 Q1019 NOSIG RMK RWY17 15015KT


Station Type Date Time Source
LTBL Decoded METAR 2020/01/27 11:50 UTC NOAA

Izmir / Cigli, Turkey (LTBL) 38-30N 027-01E 5M
Jan 27, 2020 - 06:50 AM EST / 2020.01.27 1150 UTC
Wind: from the SE (140 degrees) at 14 MPH (12 KT):0
Visibility: greater than 7 mile(s):0
Sky conditions: mostly cloudy
Temperature: 62 F (17 C)
Dew Point: 48 F (9 C)
Relative Humidity: 59%
Pressure (altimeter): 30.09 in. Hg (1019 hPa)
ob: LTBL 271150Z 14012KT 9999 SCT035 BKN100 17/09 Q1019 NOSIG RMK RWY17 15015KT
cycle: 12

Station Type Date Time Source
LTBL TAF UTC NOAA

Error!

Example: see airport list